ADDS METAR Data INFO
IDs: Format: Raw Decoded Include TAF

Data at: 2038 UTC 16 Dec 2017

KPKV 162035Z AUTO 07011KT 10SM OVC023 14/10 A3002 RMK AO2 T01430096
KPKV 162015Z AUTO 08012G17KT 10SM OVC025 14/10 A3003 RMK AO2 T01410095
KPKV 161955Z AUTO 08014KT 10SM OVC025 14/09 A3004 RMK AO2 T01410091
KPKV 161935Z AUTO 08012KT 10SM OVC025 14/09 A3005 RMK AO2 T01400087
KPKV 161915Z AUTO 08013G18KT 10SM OVC027 14/08 A3006 RMK AO2 T01400082
KPKV 161855Z AUTO 09009KT 10SM OVC027 14/08 A3009 RMK AO2 T01380080
KPKV 161835Z AUTO 08008KT 10SM OVC029 14/08 A3011 RMK AO2 T01380077
KPKV 161815Z AUTO 08011KT 10SM OVC031 14/08 A3012 RMK AO2 T01430077
KPKV 161755Z AUTO 08010KT 10SM OVC033 14/07 A3013 RMK AO2 T01400071 10140 20090
KPKV 161735Z AUTO 08008KT 10SM BKN035 OVC044 14/07 A3014 RMK AO2 T01350068
KPKV 161715Z AUTO 08014KT 10SM SCT035 OVC044 14/07 A3014 RMK AO2 T01360069
KPKV 161655Z AUTO 06010KT 10SM SCT035 SCT047 OVC090 13/07 A3015 RMK AO2 T01270065
KPKV 161635Z AUTO 06011KT 10SM SCT043 BKN050 BKN090 12/06 A3015 RMK AO2 T01190055
KPKV 161615Z AUTO 05008KT 10SM BKN045 OVC050 11/05 A3017 RMK AO2 T01120049
KPKV 161600Z AUTO 05008KT 10SM OVC050 11/04 A3019 RMK AO2 T01120043
KPKV 161535Z AUTO 06009KT 10SM OVC060 11/05 A3019 RMK AO2 T01090049
KPKV 161515Z AUTO 06008KT 10SM OVC060 11/05 A3019 RMK AO2 T01060053
KPKV 161455Z AUTO 06009KT 10SM OVC060 10/05 A3019 RMK AO2 T01030052
KPKV 161435Z AUTO 05007KT 10SM BKN065 OVC070 10/05 A3019 RMK AO2 T00990052
KPKV 161415Z AUTO 05007KT 10SM SCT047 OVC065 10/05 A3020 RMK AO2 T00970052
KPKV 161355Z AUTO 05005KT 10SM SCT047 OVC065 10/06 A3021 RMK AO2 T00960055
KPKV 161335Z AUTO 06004KT 10SM OVC065 10/05 A3020 RMK AO2 T00950052
KPKV 161315Z AUTO 04006KT 10SM BKN065 BKN080 09/05 A3018 RMK AO2 T00930054
KPKV 161255Z AUTO 05007KT 10SM BKN065 OVC080 09/06 A3018 RMK AO2 T00920057
KPKV 161235Z AUTO 03003KT 10SM OVC065 09/06 A3020 RMK AO2 T00910056
KPKV 161215Z AUTO 02004KT 10SM OVC070 09/06 A3019 RMK AO2 T00910061
KPKV 161155Z AUTO 06003KT 10SM BKN070 OVC090 09/06 A3019 RMK AO2 T00900060 10090 20072
KPKV 161135Z AUTO 04004KT 10SM OVC070 09/06 A3020 RMK AO2 T00870055
KPKV 161115Z AUTO 36003KT 10SM OVC070 09/05 A3021 RMK AO2 T00870050
KPKV 161055Z AUTO 36004KT 10SM OVC070 09/05 A3021 RMK AO2 T00870051
KPKV 161035Z AUTO 36004KT 10SM OVC080 09/05 A3021 RMK AO2 T00860054
KPKV 161015Z AUTO 00000KT 10SM OVC080 09/06 A3023 RMK AO2 T00870055
KPKV 160955Z AUTO 01003KT 10SM OVC080 09/05 A3022 RMK AO2 T00860054
KPKV 160935Z AUTO 00000KT 10SM OVC080 09/06 A3023 RMK AO2 T00860055
KPKV 160915Z AUTO 00000KT 10SM SCT065 OVC090 09/05 A3024 RMK AO2 T00850054
KPKV 160900Z AUTO 33003KT 10SM SCT065 OVC090 09/05 A3024 RMK AO2 T00860052
KPKV 160835Z AUTO 00000KT 10SM SCT065 OVC090 09/06 A3024 RMK AO2 T00860057
KPKV 160815Z AUTO 00000KT 10SM BKN065 OVC090 09/06 A3024 RMK AO2 T00850058
KPKV 160755Z AUTO 00000KT 10SM OVC075 09/06 A3024 RMK AO2 T00850060
KPKV 160735Z AUTO 00000KT 10SM OVC075 09/06 A3025 RMK AO2 T00850060
KPKV 160715Z AUTO 00000KT 10SM OVC075 08/06 A3026 RMK AO2 T00830064
KPKV 160655Z AUTO 00000KT 10SM OVC075 08/06 A3026 RMK AO2 T00820057
KPKV 160635Z AUTO 00000KT 10SM SCT075 OVC100 08/06 A3027 RMK AO2 T00800056
KPKV 160615Z AUTO 00000KT 10SM BKN100 BKN120 08/06 A3028 RMK AO2 T00760056
KPKV 160555Z AUTO 29003KT 10SM SCT120 07/05 A3028 RMK AO2 T00720053 10105 20071 401290071
KPKV 160535Z AUTO 25004KT 10SM CLR 08/05 A3029 RMK AO2 T00750052
KPKV 160515Z AUTO 00000KT 10SM SCT120 08/06 A3028 RMK AO2 T00770055
KPKV 160455Z AUTO 00000KT 10SM CLR 08/05 A3029 RMK AO2 T00800050
KPKV 160435Z AUTO 00000KT 10SM CLR 09/04 A3029 RMK AO2 T00900040
KPKV 160415Z AUTO 31003KT 10SM CLR 08/05 A3030 RMK AO2 T00810045
KPKV 160355Z AUTO 30004KT 10SM CLR 09/05 A3030 RMK AO2 T00870045
KPKV 160335Z AUTO 30003KT 10SM CLR 09/05 A3031 RMK AO2 T00870053
KPKV 160315Z AUTO 25003KT 10SM CLR 09/06 A3031 RMK AO2 T00900056
KPKV 160255Z AUTO 29003KT 10SM CLR 09/06 A3031 RMK AO2 T00900057
KPKV 160235Z AUTO 29003KT 10SM CLR 09/07 A3031 RMK AO2 T00920065
KPKV 160215Z AUTO 00000KT 10SM CLR 09/06 A3030 RMK AO2 T00930063
KPKV 160155Z AUTO 29003KT 10SM CLR 10/05 A3029 RMK AO2 T00950052
KPKV 160135Z AUTO 00000KT 10SM CLR 09/06 A3028 RMK AO2 T00900055
KPKV 160115Z AUTO 00000KT 10SM CLR 10/04 A3028 RMK AO2 T01000044
KPKV 160055Z AUTO 00000KT 10SM CLR 10/05 A3027 RMK AO2 T01000046
KPKV 152335Z AUTO 36004KT 10SM BKN110 11/04 A3027 RMK AO2 T01060044
KPKV 152315Z AUTO 02003KT 10SM CLR 11/04 A3027 RMK AO2 T01100038
KPKV 152255Z AUTO 02004KT 10SM CLR 12/03 A3027 RMK AO2 T01150030
KPKV 152240Z AUTO 02006KT 10SM SCT110 12/03 A3026 RMK AO2 T01160027
KPKV 152155Z AUTO 02008KT 10SM SCT120 12/02 A3026 RMK AO2 T01190023
KPKV 152135Z AUTO 02008KT 10SM SCT120 12/03 A3026 RMK AO2 T01190026
KPKV 152115Z AUTO 04009KT 10SM SCT100 BKN120 12/03 A3025 RMK AO2 T01200027
KPKV 152055Z AUTO 03006KT 10SM SCT120 12/03 A3026 RMK AO2 T01210029
KPKV 152035Z AUTO 02009KT 10SM SCT120 13/02 A3027 RMK AO2 T01250021
KPKV 152015Z AUTO 02008KT 10SM CLR 13/03 A3027 RMK AO2 T01250028
KPKV 151955Z AUTO 03010KT 10SM CLR 13/03 A3027 RMK AO2 T01280027
KPKV 151935Z AUTO 03011KT 10SM CLR 13/03 A3027 RMK AO2 T01260027
KPKV 151915Z AUTO 03008KT 10SM SCT120 12/03 A3029 RMK AO2 T01240028
KPKV 151855Z AUTO 03011KT 10SM SCT120 12/03 A3029 RMK AO2 T01220028
KPKV 151835Z AUTO 04013KT 10SM CLR 12/03 A3030 RMK AO2 T01240030
KPKV 151815Z AUTO 04012KT 10SM SCT120 12/03 A3030 RMK AO2 T01240027
KPKV 151755Z AUTO 03012G15KT 10SM SCT120 12/03 A3031 RMK AO2 T01170031 10117 20076
KPKV 151735Z AUTO 02012KT 10SM SCT120 11/03 A3032 RMK AO2 T01100025
KPKV 151715Z AUTO 02011KT 10SM BKN120 11/03 A3032 RMK AO2 T01050028
KPKV 151655Z AUTO 01012G17KT 10SM OVC120 10/02 A3032 RMK AO2 T01010023
KPKV 151635Z AUTO 01010KT 10SM OVC120 10/03 A3031 RMK AO2 T00990027
KPKV 151615Z AUTO 01009KT 10SM SCT070 BKN110 10/03 A3030 RMK AO2 T00950032
KPKV 151515Z AUTO 36010KT 10SM -DZ SCT044 BKN060 OVC100 09/04 A3027 RMK AO2 T00850039
KPKV 151455Z AUTO 35009KT 10SM -DZ SCT046 BKN060 OVC100 08/04 A3026 RMK AO2 T00810041
KPKV 151435Z AUTO 36010G14KT 10SM -RA SCT040 BKN060 OVC100 08/04 A3026 RMK AO2 T00780040
KPKV 151420Z AUTO 35009KT 10SM -DZ SCT049 BKN060 OVC100 08/04 A3026 RMK AO2 T00770041
KPKV 151355Z AUTO 35011KT 10SM -RA SCT041 SCT050 OVC090 08/04 A3024 RMK AO2 T00760041
KPKV 151330Z AUTO 35009KT 10SM DZ OVC090 08/04 A3024 RMK AO2 T00800040
KPKV 151315Z AUTO 35009KT 10SM RA OVC090 08/04 A3023 RMK AO2 T00810038
KPKV 151240Z AUTO 36011KT 10SM -RA OVC100 09/03 A3021 RMK AO2 T00870031
KPKV 151215Z AUTO 35014G18KT 10SM -DZ OVC090 10/03 A3020 RMK AO2 T00950026
KPKV 151155Z AUTO 35010KT 10SM -RA OVC090 10/02 A3019 RMK AO2 T00980024 10122 20098
KPKV 151135Z AUTO 36011KT 10SM OVC090 10/02 A3018 RMK AO2 T01040017
KPKV 151120Z AUTO 36015KT 10SM OVC090 11/01 A3018 RMK AO2 T01050014
KPKV 151055Z AUTO 36013G18KT 10SM OVC090 11/02 A3017 RMK AO2 T01070019
KPKV 151035Z AUTO 36014G17KT 10SM OVC090 11/02 A3017 RMK AO2 T01080022
KPKV 151015Z AUTO 36010G15KT 10SM OVC090 11/03 A3017 RMK AO2 T01080028
KPKV 150955Z AUTO 36012KT 10SM OVC090 11/03 A3016 RMK AO2 T01070033
KPKV 150935Z AUTO 36009KT 10SM -RA OVC090 10/04 A3016 RMK AO2 T01030040
KPKV 150915Z AUTO 01010KT 10SM RA OVC090 10/05 A3016 RMK AO2 T01010046
KPKV 150855Z AUTO 36012KT 10SM -DZ OVC100 11/04 A3015 RMK AO2 T01080043
KPKV 150840Z AUTO 36012G16KT 10SM -RA OVC100 11/05 A3015 RMK AO2 T01090045